Terminal Aerodrome Forecast
Issued by NWS

Home | Current Version | Previous Version | Text Only | Print | Product List | Glossary On
Versions: 1 2 3 4 5 6 7 8 9 10
455
FTUS42 KMLB 230523
TAFLEE
TAF
KLEE 230523Z 2306/2406 VRB02KT P6SM FEW028 BKN045
     FM231400 14005KT P6SM SCT030 SCT100 BKN250
     FM231800 18007KT P6SM VCSH SCT035 SCT060 BKN120
     FM240200 VRB04KT P6SM SCT035 BKN200=

USA.gov is the U.S. government's official web portal to all federal, state and local government web resources and services.